Time;durP1;ratioP1;P1;durP2;ratioP2;P2;SDS_P1;SDS_P2;PMS_P1;PMS_P2;Temp;Humidity;BMP_temperature;BMP_pressure;BME280_temperature;BME280_humidity;BME280_pressure;Samples;Min_cycle;Max_cycle;Signal;HPM_P1;HPM_P2
2022/10/24 00:02:02;;;;;;;;;;;13.70;99.90;;;;;;5053009;28;19930;-67
2022/10/24 00:04:28;;;;;;;;;;;13.70;99.90;;;;;;5042141;28;19928;-67
2022/10/24 00:06:53;;;;;;;;;;;13.70;99.90;;;;;;5051251;28;19975;-68
2022/10/24 00:09:19;;;;;;;;;;;13.60;99.90;;;;;;5049634;28;20372;-67
2022/10/24 00:11:44;;;;;;;;;;;13.60;99.90;;;;;;5052892;28;19982;-68
2022/10/24 00:14:10;;;;;;;;;;;13.60;99.90;;;;;;5049808;28;19940;-67
2022/10/24 00:16:36;;;;;;;;;;;13.50;99.90;;;;;;5051152;28;20366;-67
2022/10/24 00:19:01;;;;;;;;;;;13.50;99.90;;;;;;5037870;28;19971;-68
2022/10/24 00:21:27;;;;;;;;;;;13.40;99.90;;;;;;5055305;28;19967;-68
2022/10/24 00:23:52;;;;;;;;;;;13.40;99.90;;;;;;5051823;28;19932;-67
2022/10/24 00:26:17;;;;;;;;;;;13.40;99.90;;;;;;5051697;28;20414;-67
2022/10/24 00:28:43;;;;;;;;;;;13.40;99.90;;;;;;5052910;28;19923;-67
2022/10/24 00:31:12;;;;;;;;;;;13.30;99.90;;;;;;5045699;28;19971;-67
2022/10/24 00:33:37;;;;;;;;;;;13.40;99.90;;;;;;5051022;28;19929;-67
2022/10/24 00:36:03;;;;;;;;;;;13.40;99.90;;;;;;5055601;28;20342;-67
2022/10/24 00:38:28;;;;;;;;;;;13.50;99.90;;;;;;5052970;28;19968;-67
2022/10/24 00:40:54;;;;;;;;;;;13.50;99.90;;;;;;5051885;28;19921;-67
2022/10/24 00:43:24;;;;;;;;;;;13.40;99.90;;;;;;5055072;28;19932;-67
2022/10/24 00:45:55;;;;;;;;;;;13.40;99.90;;;;;;5051373;28;20399;-68
2022/10/24 00:48:30;;;;;;;;;;;13.40;99.90;;;;;;5044940;28;19924;-68
2022/10/24 00:50:57;;;;;;;;;;;13.40;99.90;;;;;;5047043;28;20038;-67
2022/10/24 00:53:24;;;;;;;;;;;13.40;99.90;;;;;;5051024;28;20374;-67
2022/10/24 00:55:51;;;;;;;;;;;13.30;99.90;;;;;;5057152;28;19940;-68
2022/10/24 00:58:18;;;;;;;;;;;13.40;99.90;;;;;;5051103;28;19920;-67
2022/10/24 01:00:43;;;;;;;;;;;13.40;99.90;;;;;;5049432;28;19951;-67
2022/10/24 01:03:10;;;;;;;;;;;13.30;99.90;;;;;;5052599;28;19994;-67
2022/10/24 01:05:38;;;;;;;;;;;13.30;99.90;;;;;;5049419;28;19948;-67
2022/10/24 01:08:07;;;;;;;;;;;13.30;99.90;;;;;;5047289;28;20003;-67
2022/10/24 01:10:39;;;;;;;;;;;13.30;99.90;;;;;;5051037;28;19973;-67
2022/10/24 01:13:23;;;;;;;;;;;13.30;99.90;;;;;;5052915;28;19966;-67
2022/10/24 01:15:52;;;;;;;;;;;13.30;99.90;;;;;;5050122;28;20278;-68
2022/10/24 01:18:30;;;;;;;;;;;13.30;99.90;;;;;;5052795;28;19955;-67
2022/10/24 01:21:02;;;;;;;;;;;13.40;99.90;;;;;;5051046;28;20374;-67
2022/10/24 01:23:46;;;;;;;;;;;13.40;99.90;;;;;;5052841;28;19998;-67
2022/10/24 01:26:18;;;;;;;;;;;13.50;99.90;;;;;;5055580;28;19935;-67
2022/10/24 01:28:59;;;;;;;;;;;13.50;99.90;;;;;;5048999;28;19921;-67
2022/10/24 01:31:28;;;;;;;;;;;13.50;99.90;;;;;;5052160;28;19924;-67
2022/10/24 01:33:58;;;;;;;;;;;13.50;99.90;;;;;;5048343;28;19929;-68
2022/10/24 01:36:33;;;;;;;;;;;13.60;99.90;;;;;;5046979;28;20016;-68
2022/10/24 01:39:01;;;;;;;;;;;13.60;99.90;;;;;;5051217;28;19929;-68
2022/10/24 01:41:28;;;;;;;;;;;13.70;99.90;;;;;;5052011;28;19925;-67
2022/10/24 01:43:55;;;;;;;;;;;13.70;99.90;;;;;;5050260;28;20011;-67
2022/10/24 01:46:26;;;;;;;;;;;13.80;99.90;;;;;;5057338;28;20347;-67
2022/10/24 01:48:55;;;;;;;;;;;13.80;99.90;;;;;;5056335;28;19924;-67
2022/10/24 01:51:24;;;;;;;;;;;13.80;99.90;;;;;;5052188;28;19935;-67
2022/10/24 01:53:50;;;;;;;;;;;13.90;99.90;;;;;;5051206;28;19924;-68
2022/10/24 01:56:15;;;;;;;;;;;14.00;99.90;;;;;;5045508;28;19932;-68
2022/10/24 01:58:41;;;;;;;;;;;14.00;99.90;;;;;;5033881;28;19920;-67
2022/10/24 02:01:12;;;;;;;;;;;14.00;99.90;;;;;;5048838;28;20585;-67
2022/10/24 02:03:47;;;;;;;;;;;14.00;99.90;;;;;;5051795;28;19924;-67
2022/10/24 02:06:18;;;;;;;;;;;14.00;99.90;;;;;;5048508;28;19931;-71
2022/10/24 02:08:46;;;;;;;;;;;14.00;99.90;;;;;;5049126;28;20763;-67
2022/10/24 02:11:12;;;;;;;;;;;14.00;99.90;;;;;;5046291;28;20023;-67
2022/10/24 02:13:48;;;;;;;;;;;14.10;99.90;;;;;;5047373;28;20015;-68
2022/10/24 02:16:15;;;;;;;;;;;14.00;99.90;;;;;;5048840;28;21154;-68
2022/10/24 02:18:41;;;;;;;;;;;14.10;99.90;;;;;;5049501;28;19921;-68
2022/10/24 02:21:12;;;;;;;;;;;14.10;99.90;;;;;;5049892;28;19928;-67
2022/10/24 02:23:42;;;;;;;;;;;14.10;99.90;;;;;;5047032;28;19991;-68
2022/10/24 02:26:12;;;;;;;;;;;14.00;99.90;;;;;;5050895;28;20373;-67
2022/10/24 02:28:42;;;;;;;;;;;14.00;99.90;;;;;;5051009;28;19921;-68
2022/10/24 02:31:11;;;;;;;;;;;14.00;99.90;;;;;;5050378;28;19978;-67
2022/10/24 02:33:38;;;;;;;;;;;14.00;99.90;;;;;;5052396;28;19928;-68
2022/10/24 02:36:05;;;;;;;;;;;13.90;99.90;;;;;;5062227;28;20007;-68
2022/10/24 02:38:32;;;;;;;;;;;13.90;99.90;;;;;;5057820;28;20263;-68
2022/10/24 02:40:59;;;;;;;;;;;14.00;99.90;;;;;;5044230;28;19921;-67
2022/10/24 02:43:26;;;;;;;;;;;14.00;99.90;;;;;;5053473;28;19921;-67
2022/10/24 02:45:53;;;;;;;;;;;14.00;99.90;;;;;;5053379;28;19921;-67
2022/10/24 02:48:20;;;;;;;;;;;14.00;99.90;;;;;;5054107;28;19928;-67
2022/10/24 02:50:46;;;;;;;;;;;14.00;99.90;;;;;;5055185;28;19933;-68
2022/10/24 02:53:12;;;;;;;;;;;14.00;99.90;;;;;;5053615;28;19924;-67
2022/10/24 02:55:38;;;;;;;;;;;14.10;99.90;;;;;;5043782;28;19964;-67
2022/10/24 02:58:03;;;;;;;;;;;14.10;99.90;;;;;;5050283;28;20574;-67
2022/10/24 03:00:29;;;;;;;;;;;14.10;99.90;;;;;;5059243;28;19956;-68
2022/10/24 03:02:54;;;;;;;;;;;14.10;99.90;;;;;;5050604;28;19933;-68
2022/10/24 03:05:20;;;;;;;;;;;14.10;99.90;;;;;;5054841;28;19928;-68
2022/10/24 03:07:45;;;;;;;;;;;14.10;99.90;;;;;;5053662;28;19979;-67
2022/10/24 03:10:10;;;;;;;;;;;14.10;99.90;;;;;;5053462;28;19970;-68
2022/10/24 03:12:36;;;;;;;;;;;14.20;99.90;;;;;;5051248;28;19921;-67
2022/10/24 03:15:02;;;;;;;;;;;14.20;99.90;;;;;;5054632;28;19950;-68
2022/10/24 03:17:27;;;;;;;;;;;14.20;99.90;;;;;;5056392;28;20523;-69
2022/10/24 03:19:53;;;;;;;;;;;14.20;99.90;;;;;;5048011;28;19931;-68
2022/10/24 03:22:18;;;;;;;;;;;14.20;99.90;;;;;;5053187;28;19996;-68
2022/10/24 03:24:44;;;;;;;;;;;14.20;99.90;;;;;;5051868;28;19939;-67
2022/10/24 03:27:09;;;;;;;;;;;14.20;99.90;;;;;;5054929;28;19925;-68
2022/10/24 03:29:35;;;;;;;;;;;14.20;99.90;;;;;;5051152;28;19929;-68
2022/10/24 03:32:00;;;;;;;;;;;14.30;99.90;;;;;;5058067;28;19928;-68
2022/10/24 03:34:26;;;;;;;;;;;14.30;99.90;;;;;;5051995;28;19979;-68
2022/10/24 03:36:51;;;;;;;;;;;14.30;99.90;;;;;;5054256;28;19925;-68
2022/10/24 03:39:17;;;;;;;;;;;14.30;99.90;;;;;;5056742;28;20021;-68
2022/10/24 03:41:42;;;;;;;;;;;14.30;99.90;;;;;;5055475;28;19925;-67
2022/10/24 03:44:07;;;;;;;;;;;14.30;99.90;;;;;;5058100;28;19924;-68
2022/10/24 03:46:33;;;;;;;;;;;14.30;99.90;;;;;;5055750;28;19925;-68
2022/10/24 03:48:58;;;;;;;;;;;14.30;99.90;;;;;;5056578;28;20361;-68
2022/10/24 03:51:24;;;;;;;;;;;14.30;99.90;;;;;;5054867;28;19925;-68
2022/10/24 03:53:49;;;;;;;;;;;14.30;99.90;;;;;;5053026;28;19982;-68
2022/10/24 03:56:15;;;;;;;;;;;14.30;99.90;;;;;;5060087;28;19975;-68
2022/10/24 03:58:40;;;;;;;;;;;14.30;99.90;;;;;;5051590;28;19920;-68
2022/10/24 04:01:08;;;;;;;;;;;14.30;99.90;;;;;;5051917;28;19979;-68
2022/10/24 04:03:34;;;;;;;;;;;14.30;99.90;;;;;;5046121;28;19952;-67
2022/10/24 04:05:59;;;;;;;;;;;14.30;99.90;;;;;;5048994;28;19976;-68
2022/10/24 04:08:24;;;;;;;;;;;14.20;99.90;;;;;;5039918;28;19936;-67
2022/10/24 04:10:50;;;;;;;;;;;14.20;99.90;;;;;;5041022;28;20015;-67
2022/10/24 04:13:15;;;;;;;;;;;14.10;99.90;;;;;;5037057;28;19956;-68
2022/10/24 04:15:41;;;;;;;;;;;14.10;99.90;;;;;;5040851;28;19995;-68
2022/10/24 04:18:07;;;;;;;;;;;14.00;99.90;;;;;;5044420;28;19927;-68
2022/10/24 04:20:33;;;;;;;;;;;13.90;99.90;;;;;;5045573;28;19928;-67
2022/10/24 04:22:58;;;;;;;;;;;13.90;99.90;;;;;;5049000;28;19925;-67
2022/10/24 04:25:24;;;;;;;;;;;13.90;99.90;;;;;;5050165;28;19932;-67
2022/10/24 04:27:49;;;;;;;;;;;13.90;99.90;;;;;;5026971;28;19928;-68
2022/10/24 04:30:15;;;;;;;;;;;13.80;99.90;;;;;;5047667;28;19921;-67
2022/10/24 04:32:40;;;;;;;;;;;13.70;99.90;;;;;;5050688;28;19939;-67
2022/10/24 04:35:06;;;;;;;;;;;13.70;99.90;;;;;;5042173;28;19929;-67
2022/10/24 04:37:32;;;;;;;;;;;13.60;99.90;;;;;;5037625;28;19962;-67
2022/10/24 04:39:57;;;;;;;;;;;13.60;99.90;;;;;;5053859;28;19925;-67
2022/10/24 04:42:23;;;;;;;;;;;13.50;99.90;;;;;;5056927;28;19952;-67
2022/10/24 04:44:49;;;;;;;;;;;13.40;99.90;;;;;;5055019;28;19920;-67
2022/10/24 04:47:14;;;;;;;;;;;13.30;99.90;;;;;;5052276;28;20337;-68
2022/10/24 04:49:40;;;;;;;;;;;13.30;99.90;;;;;;5049962;28;19936;-67
2022/10/24 04:52:05;;;;;;;;;;;13.30;99.90;;;;;;5057716;28;19921;-67
2022/10/24 04:54:31;;;;;;;;;;;13.20;99.90;;;;;;5048138;28;20350;-67
2022/10/24 04:56:56;;;;;;;;;;;13.20;99.90;;;;;;5062173;28;19929;-67
2022/10/24 04:59:22;;;;;;;;;;;13.10;99.90;;;;;;5047059;28;20228;-68
2022/10/24 05:01:47;;;;;;;;;;;13.10;99.90;;;;;;5054246;28;19965;-68
2022/10/24 05:04:13;;;;;;;;;;;13.10;99.90;;;;;;5056109;28;19925;-68
2022/10/24 05:06:38;;;;;;;;;;;13.10;99.90;;;;;;5054695;28;20015;-67
2022/10/24 05:09:03;;;;;;;;;;;13.00;99.90;;;;;;5050904;28;19936;-67
2022/10/24 05:11:29;;;;;;;;;;;13.00;99.90;;;;;;5047267;28;19943;-68
2022/10/24 05:13:55;;;;;;;;;;;13.00;99.90;;;;;;5046693;28;19925;-68
2022/10/24 05:16:20;;;;;;;;;;;13.00;99.90;;;;;;5050506;28;19921;-67
2022/10/24 05:18:46;;;;;;;;;;;13.10;99.90;;;;;;5057231;28;19967;-68
2022/10/24 05:21:11;;;;;;;;;;;13.10;99.90;;;;;;5052444;28;19920;-68
2022/10/24 05:23:37;;;;;;;;;;;13.10;99.90;;;;;;5052104;28;20626;-68
2022/10/24 05:26:02;;;;;;;;;;;13.20;99.90;;;;;;5049824;28;20441;-68
2022/10/24 05:28:28;;;;;;;;;;;13.20;99.90;;;;;;5051483;28;20267;-69
2022/10/24 05:30:53;;;;;;;;;;;13.20;99.90;;;;;;5053468;28;20351;-68
2022/10/24 05:33:19;;;;;;;;;;;13.20;99.90;;;;;;5048065;28;20244;-68
2022/10/24 05:35:44;;;;;;;;;;;13.30;99.90;;;;;;5050109;28;19925;-68
2022/10/24 05:38:10;;;;;;;;;;;13.20;99.90;;;;;;5049641;28;19939;-68
2022/10/24 05:40:35;;;;;;;;;;;13.20;99.90;;;;;;5054630;28;19921;-68
2022/10/24 05:43:01;;;;;;;;;;;13.20;99.90;;;;;;5049557;28;19981;-68
2022/10/24 05:45:26;;;;;;;;;;;13.20;99.90;;;;;;5050231;28;19925;-68
2022/10/24 05:47:52;;;;;;;;;;;13.30;99.90;;;;;;5053841;28;20404;-67
2022/10/24 05:50:17;;;;;;;;;;;13.30;99.90;;;;;;5050494;28;19921;-68
2022/10/24 05:52:43;;;;;;;;;;;13.30;99.90;;;;;;5049697;28;19966;-67
2022/10/24 05:55:09;;;;;;;;;;;13.30;99.90;;;;;;5053613;28;19932;-68
2022/10/24 05:57:35;;;;;;;;;;;13.30;99.90;;;;;;5054816;28;20278;-67
2022/10/24 06:00:01;;;;;;;;;;;13.30;99.90;;;;;;5050847;28;20302;-67
2022/10/24 06:02:26;;;;;;;;;;;13.40;99.90;;;;;;5049474;28;19924;-68
2022/10/24 06:04:53;;;;;;;;;;;13.30;99.90;;;;;;5052651;28;19928;-68
2022/10/24 06:07:19;;;;;;;;;;;13.40;99.90;;;;;;5043404;28;19925;-68
2022/10/24 06:09:44;;;;;;;;;;;13.50;99.90;;;;;;5049720;28;19925;-68
2022/10/24 06:12:10;;;;;;;;;;;13.50;99.90;;;;;;5047371;28;20298;-67
2022/10/24 06:14:37;;;;;;;;;;;13.60;99.90;;;;;;5046304;28;19932;-67
2022/10/24 06:17:04;;;;;;;;;;;13.60;99.90;;;;;;5035544;28;20011;-68
2022/10/24 06:19:30;;;;;;;;;;;13.60;99.90;;;;;;5051923;28;19924;-68
2022/10/24 06:21:55;;;;;;;;;;;13.70;99.90;;;;;;5057137;28;19928;-67
2022/10/24 06:24:21;;;;;;;;;;;13.80;99.90;;;;;;5050144;28;20386;-68
2022/10/24 06:26:46;;;;;;;;;;;13.80;99.90;;;;;;5051909;28;19925;-68
2022/10/24 06:29:12;;;;;;;;;;;13.80;99.90;;;;;;5048113;28;20033;-67
2022/10/24 06:31:37;;;;;;;;;;;13.80;99.90;;;;;;5051037;28;19996;-67
2022/10/24 06:34:03;;;;;;;;;;;13.80;99.90;;;;;;5048756;28;20035;-68
2022/10/24 06:36:28;;;;;;;;;;;13.70;99.90;;;;;;5048755;28;19921;-67
2022/10/24 06:38:54;;;;;;;;;;;13.70;99.90;;;;;;5059364;28;19920;-67
2022/10/24 06:41:19;;;;;;;;;;;13.70;99.90;;;;;;5044654;28;20290;-67
2022/10/24 06:43:45;;;;;;;;;;;13.70;99.90;;;;;;5050906;28;19948;-67
2022/10/24 06:46:12;;;;;;;;;;;13.70;99.90;;;;;;5042144;28;19929;-67
2022/10/24 06:48:38;;;;;;;;;;;13.70;99.90;;;;;;5047565;28;19936;-67
2022/10/24 06:51:04;;;;;;;;;;;13.70;99.90;;;;;;5045778;28;19921;-67
2022/10/24 06:53:31;;;;;;;;;;;13.60;99.90;;;;;;5048769;28;19931;-67
2022/10/24 06:56:03;;;;;;;;;;;13.60;99.90;;;;;;5032750;28;19924;-67
2022/10/24 06:58:29;;;;;;;;;;;13.60;99.90;;;;;;5050506;28;20313;-67
2022/10/24 07:00:55;;;;;;;;;;;13.60;99.90;;;;;;5049299;28;19921;-68
2022/10/24 07:03:20;;;;;;;;;;;13.60;99.90;;;;;;5053768;28;19924;-67
2022/10/24 07:05:46;;;;;;;;;;;13.60;99.90;;;;;;5047087;28;19921;-67
2022/10/24 07:08:11;;;;;;;;;;;13.60;99.90;;;;;;5046391;28;20359;-68
2022/10/24 07:10:37;;;;;;;;;;;13.70;99.90;;;;;;5043590;28;19974;-68
2022/10/24 07:13:02;;;;;;;;;;;13.80;99.90;;;;;;5053532;28;20288;-68
2022/10/24 07:15:27;;;;;;;;;;;14.00;99.90;;;;;;5044769;28;19929;-67
2022/10/24 07:17:53;;;;;;;;;;;14.10;99.90;;;;;;5050523;28;19925;-67
2022/10/24 07:20:18;;;;;;;;;;;14.30;99.90;;;;;;5052659;28;19925;-68
2022/10/24 07:22:44;;;;;;;;;;;14.40;99.90;;;;;;5057315;28;19925;-67
2022/10/24 07:25:09;;;;;;;;;;;14.40;99.90;;;;;;5052016;28;20305;-67
2022/10/24 07:27:35;;;;;;;;;;;14.40;99.90;;;;;;5053593;28;19927;-67
2022/10/24 07:30:00;;;;;;;;;;;14.50;99.90;;;;;;5049501;28;19929;-68
2022/10/24 07:32:26;;;;;;;;;;;14.50;99.90;;;;;;5057879;28;19994;-68
2022/10/24 07:34:51;;;;;;;;;;;14.50;99.90;;;;;;5049647;28;19978;-68
2022/10/24 07:37:17;;;;;;;;;;;14.50;99.90;;;;;;5052330;28;20382;-67
2022/10/24 07:39:45;;;;;;;;;;;14.50;99.90;;;;;;5052366;28;19928;-67
2022/10/24 07:42:11;;;;;;;;;;;14.50;99.90;;;;;;5050752;28;19936;-67
2022/10/24 07:44:37;;;;;;;;;;;14.50;99.90;;;;;;5057423;28;19974;-68
2022/10/24 07:47:05;;;;;;;;;;;14.60;99.90;;;;;;5052159;28;19920;-68
2022/10/24 07:49:31;;;;;;;;;;;14.70;99.90;;;;;;5048198;28;19921;-67
2022/10/24 07:51:57;;;;;;;;;;;14.90;99.90;;;;;;5054768;28;20473;-67
2022/10/24 07:54:24;;;;;;;;;;;15.10;99.90;;;;;;5050258;28;19936;-67
2022/10/24 07:56:50;;;;;;;;;;;15.30;99.90;;;;;;5046718;28;20283;-68
2022/10/24 07:59:15;;;;;;;;;;;15.40;99.90;;;;;;5049341;28;19928;-68
2022/10/24 08:01:40;;;;;;;;;;;15.50;99.90;;;;;;5049758;28;19932;-68
2022/10/24 08:04:06;;;;;;;;;;;15.60;99.90;;;;;;5050066;28;20139;-67
2022/10/24 08:06:31;;;;;;;;;;;15.60;99.90;;;;;;5056142;28;19920;-68
2022/10/24 08:08:57;;;;;;;;;;;15.70;99.90;;;;;;5051177;28;19928;-68
2022/10/24 08:11:24;;;;;;;;;;;15.70;99.90;;;;;;5052576;28;19920;-68
2022/10/24 08:13:50;;;;;;;;;;;15.70;99.90;;;;;;5033478;28;20002;-68
2022/10/24 08:16:16;;;;;;;;;;;15.80;99.90;;;;;;5048486;28;19951;-67
2022/10/24 08:18:41;;;;;;;;;;;15.70;99.90;;;;;;5051552;28;20414;-67
2022/10/24 08:21:08;;;;;;;;;;;15.60;99.90;;;;;;5046224;28;19927;-68
2022/10/24 08:23:35;;;;;;;;;;;15.60;99.90;;;;;;5052785;28;19921;-68
2022/10/24 08:26:03;;;;;;;;;;;15.60;99.90;;;;;;5047260;28;19928;-67
2022/10/24 08:28:28;;;;;;;;;;;15.60;99.90;;;;;;5045947;28;20015;-67
2022/10/24 08:30:58;;;;;;;;;;;15.70;99.90;;;;;;5057121;28;20015;-67
2022/10/24 08:33:23;;;;;;;;;;;15.80;99.90;;;;;;5051406;28;19924;-67
2022/10/24 08:35:49;;;;;;;;;;;15.90;99.90;;;;;;5053864;28;19931;-67
2022/10/24 08:38:15;;;;;;;;;;;16.00;99.90;;;;;;5070543;23;19931;-68
2022/10/24 08:40:40;;;;;;;;;;;16.00;99.90;;;;;;5052304;28;19952;-68
2022/10/24 08:43:06;;;;;;;;;;;16.10;99.90;;;;;;5070550;28;19931;-68
2022/10/24 08:45:37;;;;;;;;;;;16.10;99.90;;;;;;5066525;28;19935;-68
2022/10/24 08:48:05;;;;;;;;;;;16.10;99.90;;;;;;5065106;28;19929;-68
2022/10/24 08:50:34;;;;;;;;;;;16.10;99.90;;;;;;5069694;28;19936;-68
2022/10/24 08:53:03;;;;;;;;;;;16.10;99.90;;;;;;5063441;28;20051;-67
2022/10/24 08:55:36;;;;;;;;;;;16.10;99.90;;;;;;5065401;28;19928;-67
2022/10/24 08:58:02;;;;;;;;;;;16.10;99.90;;;;;;5065339;28;19932;-67
2022/10/24 09:00:41;;;;;;;;;;;16.10;99.90;;;;;;5085946;28;20070;-67
2022/10/24 09:03:26;;;;;;;;;;;16.20;99.90;;;;;;5066851;28;19925;-67
2022/10/24 09:05:53;;;;;;;;;;;16.30;99.90;;;;;;5068680;28;20011;-67
2022/10/24 09:08:36;;;;;;;;;;;16.30;99.90;;;;;;5065168;28;19928;-67
2022/10/24 09:11:04;;;;;;;;;;;16.30;99.90;;;;;;5070759;28;19926;-67
2022/10/24 09:13:30;;;;;;;;;;;16.40;99.90;;;;;;5062470;28;19929;-67
2022/10/24 09:15:56;;;;;;;;;;;16.50;99.90;;;;;;5068907;28;19924;-67
2022/10/24 09:18:24;;;;;;;;;;;16.50;99.90;;;;;;5067966;28;19925;-67
2022/10/24 09:20:49;;;;;;;;;;;;;;;;;;5060905;28;20316;-67
2022/10/24 09:23:16;;;;;;;;;;;16.60;99.90;;;;;;5058841;28;19927;-67
2022/10/24 09:25:44;;;;;;;;;;;16.70;99.90;;;;;;5052723;28;19975;-67
2022/10/24 09:28:10;;;;;;;;;;;;;;;;;;5061607;28;20397;-67
2022/10/24 09:30:36;;;;;;;;;;;;;;;;;;5071709;28;20019;-67
2022/10/24 09:33:02;;;;;;;;;;;;;;;;;;5060890;28;20015;-67
2022/10/24 09:35:28;;;;;;;;;;;;;;;;;;5074606;28;20020;-67
2022/10/24 09:37:57;;;;;;;;;;;;;;;;;;5059237;28;19970;-67
2022/10/24 09:40:22;;;;;;;;;;;;;;;;;;5071720;28;19931;-67
2022/10/24 09:42:48;;;;;;;;;;;;;;;;;;5059724;28;19921;-67
2022/10/24 09:45:14;;;;;;;;;;;;;;;;;;5074590;28;19951;-67
2022/10/24 09:47:40;;;;;;;;;;;;;;;;;;5069112;28;19920;-68
2022/10/24 09:50:17;;;;;;;;;;;17.00;99.90;;;;;;5052185;28;20317;-68
2022/10/24 09:52:47;;;;;;;;;;;17.00;99.90;;;;;;5078126;28;19932;-68
2022/10/24 09:55:20;;;;;;;;;;;17.00;99.90;;;;;;5061227;28;20366;-67
2022/10/24 09:57:46;;;;;;;;;;;17.00;99.90;;;;;;5050457;28;20328;-67
2022/10/24 10:00:12;;;;;;;;;;;;;;;;;;5067567;28;19924;-67
2022/10/24 10:02:38;;;;;;;;;;;;;;;;;;5072481;28;19920;-67
2022/10/24 10:05:05;;;;;;;;;;;;;;;;;;5052371;28;20005;-67
2022/10/24 10:07:31;;;;;;;;;;;;;;;;;;5059419;28;19967;-67
2022/10/24 10:09:57;;;;;;;;;;;;;;;;;;5052714;28;20495;-67
2022/10/24 10:12:23;;;;;;;;;;;;;;;;;;5067279;28;19929;-67
2022/10/24 10:14:49;;;;;;;;;;;;;;;;;;5056312;28;20471;-67
2022/10/24 10:17:15;;;;;;;;;;;;;;;;;;5063315;28;19925;-67
2022/10/24 10:19:44;;;;;;;;;;;;;;;;;;5049986;28;20372;-67
2022/10/24 10:22:09;;;;;;;;;;;;;;;;;;5049894;28;20332;-67
2022/10/24 10:24:38;;;;;;;;;;;;;;;;;;5063268;28;19921;-67
2022/10/24 10:27:04;;;;;;;;;;;;;;;;;;5067191;28;20011;-67
2022/10/24 10:29:30;;;;;;;;;;;;;;;;;;5071009;28;19995;-67
2022/10/24 10:31:56;;;;;;;;;;;;;;;;;;5064511;28;20361;-67
2022/10/24 10:34:22;;;;;;;;;;;;;;;;;;5061851;28;20448;-67
2022/10/24 10:36:48;;;;;;;;;;;;;;;;;;5069470;28;20045;-67
2022/10/24 10:39:14;;;;;;;;;;;;;;;;;;5070650;28;19924;-67
2022/10/24 10:41:40;;;;;;;;;;;;;;;;;;5056601;28;19974;-67
2022/10/24 10:44:06;;;;;;;;;;;;;;;;;;5057809;28;20382;-67
2022/10/24 10:46:32;;;;;;;;;;;;;;;;;;5045500;28;19925;-67
2022/10/24 10:48:58;;;;;;;;;;;;;;;;;;5057047;28;19925;-67
2022/10/24 10:51:24;;;;;;;;;;;;;;;;;;5057979;28;19924;-67
2022/10/24 10:53:49;;;;;;;;;;;;;;;;;;5062120;28;19925;-67
2022/10/24 10:56:16;;;;;;;;;;;;;;;;;;5066679;28;19926;-67
2022/10/24 10:58:42;;;;;;;;;;;;;;;;;;5063222;28;19929;-67
2022/10/24 11:01:08;;;;;;;;;;;;;;;;;;5071407;28;19928;-67
2022/10/24 11:03:34;;;;;;;;;;;;;;;;;;5062506;28;19924;-67
2022/10/24 11:06:00;;;;;;;;;;;;;;;;;;5072834;28;19927;-67
2022/10/24 11:08:25;;;;;;;;;;;;;;;;;;5063458;28;19929;-67
2022/10/24 11:10:51;;;;;;;;;;;;;;;;;;5063135;28;19929;-67
2022/10/24 11:13:19;;;;;;;;;;;17.70;99.90;;;;;;5049250;28;19925;-67
2022/10/24 11:15:47;;;;;;;;;;;17.70;99.90;;;;;;5061692;28;19956;-67
2022/10/24 11:18:12;;;;;;;;;;;17.70;99.90;;;;;;5064182;28;19924;-67
2022/10/24 11:20:53;;;;;;;;;;;17.60;99.90;;;;;;5070491;28;20003;-66
2022/10/24 11:23:21;;;;;;;;;;;17.50;99.90;;;;;;5067998;28;19943;-67
2022/10/24 11:25:47;;;;;;;;;;;17.40;99.90;;;;;;5069475;28;19921;-66
2022/10/24 11:28:31;;;;;;;;;;;17.30;99.90;;;;;;5055704;28;20670;-67
2022/10/24 11:31:15;;;;;;;;;;;17.40;99.90;;;;;;5057178;28;19924;-67
2022/10/24 11:33:43;;;;;;;;;;;17.40;99.90;;;;;;5045631;28;19986;-67
2022/10/24 11:36:13;;;;;;;;;;;17.50;99.90;;;;;;5066035;28;19927;-67
2022/10/24 11:38:42;;;;;;;;;;;17.70;99.90;;;;;;5072732;28;19970;-67
2022/10/24 11:41:20;;;;;;;;;;;17.70;99.90;;;;;;5060384;28;19959;-67
2022/10/24 11:43:46;;;;;;;;;;;17.70;99.90;;;;;;5070453;28;19920;-67
2022/10/24 11:46:11;;;;;;;;;;;17.70;99.90;;;;;;5057373;28;19977;-67
2022/10/24 11:48:39;;;;;;;;;;;17.60;99.90;;;;;;5066466;28;19927;-67
2022/10/24 11:51:11;;;;;;;;;;;17.60;99.90;;;;;;5063232;28;20011;-67
2022/10/24 11:53:38;;;;;;;;;;;17.60;99.90;;;;;;5062039;28;19932;-67
2022/10/24 11:56:18;;;;;;;;;;;17.70;99.90;;;;;;5059750;28;19924;-67
2022/10/24 11:58:51;;;;;;;;;;;17.70;99.90;;;;;;5066496;28;19924;-67
2022/10/24 12:01:31;;;;;;;;;;;17.70;99.90;;;;;;5061475;28;19920;-67
2022/10/24 12:04:03;;;;;;;;;;;17.70;99.90;;;;;;5064886;28;19924;-67
2022/10/24 12:06:37;;;;;;;;;;;17.80;99.90;;;;;;5047277;28;19932;-67
2022/10/24 12:09:12;;;;;;;;;;;17.70;99.90;;;;;;5066442;28;20424;-67
2022/10/24 12:11:46;;;;;;;;;;;17.90;99.90;;;;;;5065633;28;19924;-67
2022/10/24 12:14:27;;;;;;;;;;;17.90;99.90;;;;;;5063222;28;19928;-67
2022/10/24 12:17:12;;;;;;;;;;;18.00;99.90;;;;;;5059052;28;19921;-67
2022/10/24 12:19:41;;;;;;;;;;;18.10;99.90;;;;;;5064437;28;19921;-67
2022/10/24 12:22:13;;;;;;;;;;;17.90;99.90;;;;;;5068012;28;19924;-67
2022/10/24 12:24:39;;;;;;;;;;;17.90;99.90;;;;;;5045718;28;20448;-67
2022/10/24 12:27:20;;;;;;;;;;;17.80;99.90;;;;;;5062886;28;19920;-67
2022/10/24 12:29:58;;;;;;;;;;;17.80;99.90;;;;;;5066091;28;20306;-67
2022/10/24 12:32:32;;;;;;;;;;;17.70;99.90;;;;;;5077797;28;19931;-67
2022/10/24 12:34:58;;;;;;;;;;;17.70;99.90;;;;;;5065899;28;19930;-68
2022/10/24 12:37:25;;;;;;;;;;;17.70;99.90;;;;;;5069075;28;19966;-67
2022/10/24 12:39:51;;;;;;;;;;;17.60;99.90;;;;;;5068798;28;19924;-67
2022/10/24 12:42:23;;;;;;;;;;;17.50;99.90;;;;;;5064242;28;19932;-67
2022/10/24 12:45:00;;;;;;;;;;;17.60;99.90;;;;;;5066729;28;20007;-67
2022/10/24 12:47:28;;;;;;;;;;;17.60;99.90;;;;;;5057502;28;20003;-67
2022/10/24 12:49:53;;;;;;;;;;;17.50;99.90;;;;;;5062794;28;19920;-67
2022/10/24 12:52:31;;;;;;;;;;;17.30;99.90;;;;;;5064352;28;19935;-67
2022/10/24 12:54:57;;;;;;;;;;;17.30;99.90;;;;;;5066780;28;19989;-67
2022/10/24 12:57:23;;;;;;;;;;;;;;;;;;5060800;28;19931;-67
2022/10/24 12:59:50;;;;;;;;;;;17.10;99.90;;;;;;5068830;28;20011;-67
2022/10/24 13:02:19;;;;;;;;;;;17.10;99.90;;;;;;5070659;28;19924;-67
2022/10/24 13:05:03;;;;;;;;;;;17.00;99.90;;;;;;5057233;28;19924;-67
2022/10/24 13:07:28;;;;;;;;;;;17.00;99.90;;;;;;5055419;28;19925;-67
2022/10/24 13:10:03;;;;;;;;;;;17.00;99.90;;;;;;5058246;28;19921;-67
2022/10/24 13:12:43;;;;;;;;;;;17.10;99.90;;;;;;5056218;28;20007;-67
2022/10/24 13:15:18;;;;;;;;;;;17.10;99.90;;;;;;5066540;28;20019;-68
2022/10/24 13:17:49;;;;;;;;;;;17.10;99.90;;;;;;5067717;28;19935;-67
2022/10/24 13:20:23;;;;;;;;;;;17.00;99.90;;;;;;5068219;28;19931;-67
2022/10/24 13:22:49;;;;;;;;;;;17.00;99.90;;;;;;5047547;28;19920;-67
2022/10/24 13:25:18;;;;;;;;;;;17.00;99.90;;;;;;5063044;28;20054;-67
2022/10/24 13:27:43;;;;;;;;;;;16.90;99.90;;;;;;5064110;28;20480;-68
2022/10/24 13:30:23;;;;;;;;;;;16.90;99.90;;;;;;5068445;28;20003;-67
2022/10/24 13:32:48;;;;;;;;;;;16.90;99.90;;;;;;5064481;28;19960;-67
2022/10/24 13:35:17;;;;;;;;;;;17.00;99.90;;;;;;5066893;28;19959;-67
2022/10/24 13:37:49;;;;;;;;;;;17.20;99.90;;;;;;5071269;28;19924;-67
2022/10/24 13:40:24;;;;;;;;;;;17.20;99.90;;;;;;5066052;28;19927;-67
2022/10/24 13:42:51;;;;;;;;;;;17.30;99.90;;;;;;5045880;28;19920;-67
2022/10/24 13:45:16;;;;;;;;;;;17.20;99.90;;;;;;5066749;28;19921;-67
2022/10/24 13:47:43;;;;;;;;;;;17.20;99.90;;;;;;5075168;28;19928;-67
2022/10/24 13:50:16;;;;;;;;;;;17.20;99.90;;;;;;5076153;28;20415;-67
2022/10/24 13:52:43;;;;;;;;;;;17.30;99.90;;;;;;5063519;28;19928;-67
2022/10/24 13:55:19;;;;;;;;;;;17.30;99.90;;;;;;5057856;28;19932;-67
2022/10/24 13:57:49;;;;;;;;;;;17.20;99.90;;;;;;5059605;28;19920;-67
2022/10/24 14:00:18;;;;;;;;;;;17.10;99.90;;;;;;5058566;28;19920;-67
2022/10/24 14:02:44;;;;;;;;;;;17.20;99.90;;;;;;5044412;28;19985;-67
2022/10/24 14:05:21;;;;;;;;;;;17.00;99.90;;;;;;5057991;28;19925;-67
2022/10/24 14:07:46;;;;;;;;;;;17.00;99.90;;;;;;5046426;28;19920;-67
2022/10/24 14:10:13;;;;;;;;;;;16.90;99.90;;;;;;5063779;28;20385;-67
2022/10/24 14:12:39;;;;;;;;;;;16.90;99.90;;;;;;5058801;28;19932;-67
2022/10/24 14:15:05;;;;;;;;;;;16.90;99.90;;;;;;5060178;28;19920;-67
2022/10/24 14:17:35;;;;;;;;;;;16.90;99.90;;;;;;5055883;28;19930;-67
2022/10/24 14:20:17;;;;;;;;;;;17.00;99.90;;;;;;5061349;28;20007;-67
2022/10/24 14:22:43;;;;;;;;;;;17.00;99.90;;;;;;5057196;28;19924;-67
2022/10/24 14:25:20;;;;;;;;;;;16.90;99.90;;;;;;5064587;28;19970;-67
2022/10/24 14:27:46;;;;;;;;;;;16.80;99.90;;;;;;5062740;28;19920;-67
2022/10/24 14:30:16;;;;;;;;;;;16.80;99.90;;;;;;5058226;28;20328;-67
2022/10/24 14:32:41;;;;;;;;;;;16.70;99.90;;;;;;5064762;28;19940;-67
2022/10/24 14:35:10;;;;;;;;;;;16.60;99.90;;;;;;5062668;28;19920;-67